createdAt,value
2018-07-27T00:00:27.687Z,1009.08
2018-07-27T00:01:03.286Z,1009.06
2018-07-27T00:01:38.608Z,1009.06
2018-07-27T00:02:13.960Z,1009.04
2018-07-27T00:02:49.107Z,1009.06
2018-07-27T00:03:24.436Z,1009.03
2018-07-27T00:03:59.833Z,1009.04
2018-07-27T00:04:35.075Z,1009.04
2018-07-27T00:05:10.570Z,1009.02
2018-07-27T00:05:45.787Z,1009.03
2018-07-27T00:06:21.182Z,1009.02
2018-07-27T00:06:56.516Z,1008.98
2018-07-27T00:07:31.956Z,1008.99
2018-07-27T00:08:07.344Z,1008.96
2018-07-27T00:08:42.476Z,1008.97
2018-07-27T00:09:17.779Z,1008.98
2018-07-27T00:09:53.321Z,1008.98
2018-07-27T00:10:28.962Z,1008.99
2018-07-27T00:11:04.238Z,1008.96
2018-07-27T00:11:39.470Z,1008.98
2018-07-27T00:12:14.905Z,1009.02
2018-07-27T00:12:50.440Z,1009.01
2018-07-27T00:13:25.752Z,1009.01
2018-07-27T00:14:01.263Z,1009.00
2018-07-27T00:14:36.475Z,1009.00
2018-07-27T00:15:11.789Z,1009.00
2018-07-27T00:15:47.127Z,1008.99
2018-07-27T00:16:22.633Z,1008.98
2018-07-27T00:16:58.276Z,1009.00
2018-07-27T00:17:33.429Z,1009.01
2018-07-27T00:18:08.824Z,1009.01
2018-07-27T00:18:44.153Z,1009.01
2018-07-27T00:19:19.244Z,1009.01
2018-07-27T00:19:54.244Z,1009.01
2018-07-27T00:20:29.851Z,1009.00
2018-07-27T00:21:05.134Z,1008.99
2018-07-27T00:21:40.667Z,1008.99
2018-07-27T00:22:15.895Z,1009.00
2018-07-27T00:22:51.017Z,1008.98
2018-07-27T00:23:26.246Z,1008.97
2018-07-27T00:24:01.566Z,1008.97
2018-07-27T00:24:36.880Z,1008.98
2018-07-27T00:25:12.181Z,1008.95
2018-07-27T00:25:47.814Z,1008.97
2018-07-27T00:26:22.945Z,1009.00
2018-07-27T00:26:58.392Z,1008.95
2018-07-27T00:27:34.120Z,1008.95
2018-07-27T00:28:09.608Z,1008.95
2018-07-27T00:28:45.125Z,1008.95
2018-07-27T00:29:20.625Z,1008.95
2018-07-27T00:29:55.848Z,1008.96
2018-07-27T00:30:31.267Z,1008.95
2018-07-27T00:31:06.763Z,1008.94
2018-07-27T00:31:41.980Z,1008.96
2018-07-27T00:32:17.508Z,1008.93
2018-07-27T00:32:52.944Z,1008.95
2018-07-27T00:33:28.281Z,1008.94
2018-07-27T00:34:03.472Z,1008.98
2018-07-27T00:34:38.604Z,1008.95
2018-07-27T00:35:13.689Z,1008.96
2018-07-27T00:35:49.194Z,1008.95
2018-07-27T00:36:24.555Z,1008.98
2018-07-27T00:36:59.878Z,1008.97
2018-07-27T00:37:35.298Z,1008.96
2018-07-27T00:38:10.586Z,1008.96
2018-07-27T00:38:46.126Z,1008.97
2018-07-27T00:39:21.422Z,1008.99
2018-07-27T00:39:56.658Z,1008.99
2018-07-27T00:40:31.876Z,1008.99
2018-07-27T00:41:06.956Z,1008.97
2018-07-27T00:41:42.490Z,1008.98
2018-07-27T00:42:18.047Z,1008.97
2018-07-27T00:42:54.580Z,1008.99
2018-07-27T00:43:30.189Z,1008.94
2018-07-27T00:44:05.800Z,1008.94
2018-07-27T00:44:40.976Z,1008.96
2018-07-27T00:45:16.277Z,1008.95
2018-07-27T00:45:51.604Z,1008.97
2018-07-27T00:46:26.914Z,1008.96
2018-07-27T00:47:02.160Z,1008.96
2018-07-27T00:47:37.777Z,1008.97
2018-07-27T00:48:13.466Z,1008.99
2018-07-27T00:48:49.126Z,1009.02
2018-07-27T00:49:24.478Z,1008.99
2018-07-27T00:49:59.954Z,1008.97
2018-07-27T00:50:35.264Z,1008.98
2018-07-27T00:51:10.656Z,1008.98
2018-07-27T00:51:46.096Z,1009.00
2018-07-27T00:52:21.520Z,1008.96
2018-07-27T00:52:56.850Z,1008.96
2018-07-27T00:53:32.664Z,1008.97
2018-07-27T00:54:07.867Z,1008.98
2018-07-27T00:54:43.397Z,1008.96
2018-07-27T00:55:18.618Z,1008.99
2018-07-27T00:55:53.651Z,1008.98
2018-07-27T00:56:29.002Z,1008.99
2018-07-27T00:57:04.480Z,1008.99
2018-07-27T00:57:40.044Z,1008.99
2018-07-27T00:58:15.150Z,1008.95
2018-07-27T00:58:50.464Z,1008.95
2018-07-27T00:59:25.808Z,1008.97
2018-07-27T01:00:00.980Z,1008.93
2018-07-27T01:00:36.396Z,1008.95
2018-07-27T01:01:11.590Z,1008.92
2018-07-27T01:01:47.138Z,1008.94
2018-07-27T01:02:22.670Z,1008.94
2018-07-27T01:02:57.995Z,1008.95
2018-07-27T01:03:33.296Z,1008.89
2018-07-27T01:04:08.799Z,1008.93
2018-07-27T01:04:44.719Z,1008.93
2018-07-27T01:05:20.235Z,1008.90
2018-07-27T01:05:55.545Z,1008.86
2018-07-27T01:06:30.984Z,1008.91
2018-07-27T01:07:06.501Z,1008.90
2018-07-27T01:07:41.923Z,1008.88
2018-07-27T01:08:17.214Z,1008.89
2018-07-27T01:08:52.451Z,1008.88
2018-07-27T01:09:27.545Z,1008.88
2018-07-27T01:10:02.599Z,1008.85
2018-07-27T01:10:38.326Z,1008.86
2018-07-27T01:11:13.639Z,1008.83
2018-07-27T01:11:48.659Z,1008.81
2018-07-27T01:12:23.770Z,1008.84
2018-07-27T01:12:59.295Z,1008.83
2018-07-27T01:13:34.600Z,1008.83
2018-07-27T01:14:09.924Z,1008.85
2018-07-27T01:14:45.367Z,1008.85
2018-07-27T01:15:20.484Z,1008.85
2018-07-27T01:15:55.728Z,1008.88
2018-07-27T01:16:30.920Z,1008.87
2018-07-27T01:17:06.461Z,1008.87
2018-07-27T01:17:41.866Z,1008.84
2018-07-27T01:18:17.248Z,1008.88
2018-07-27T01:18:52.384Z,1008.86
2018-07-27T01:19:27.790Z,1008.89
2018-07-27T01:20:03.306Z,1008.90
2018-07-27T01:20:38.623Z,1008.91
2018-07-27T01:21:13.611Z,1008.87
2018-07-27T01:21:48.840Z,1008.87
2018-07-27T01:22:24.633Z,1008.90
2018-07-27T01:22:59.966Z,1008.88
2018-07-27T01:23:35.474Z,1008.88
2018-07-27T01:24:12.379Z,1008.89
2018-07-27T01:24:47.906Z,1008.86
2018-07-27T01:25:23.011Z,1008.85
2018-07-27T01:25:58.835Z,1008.88
2018-07-27T01:26:34.155Z,1008.84
2018-07-27T01:27:09.376Z,1008.82
2018-07-27T01:27:44.688Z,1008.83
2018-07-27T01:28:20.333Z,1008.81
2018-07-27T01:28:55.562Z,1008.81
2018-07-27T01:29:30.765Z,1008.80
2018-07-27T01:30:06.098Z,1008.80
2018-07-27T01:30:43.236Z,1008.80
2018-07-27T01:31:18.338Z,1008.75
2018-07-27T01:31:54.383Z,1008.72
2018-07-27T01:32:30.089Z,1008.76
2018-07-27T01:33:05.535Z,1008.77
2018-07-27T01:33:41.968Z,1008.75
2018-07-27T01:34:17.169Z,1008.77
2018-07-27T01:34:52.510Z,1008.76
2018-07-27T01:35:28.011Z,1008.78
2018-07-27T01:36:03.258Z,1008.75
2018-07-27T01:36:38.590Z,1008.75
2018-07-27T01:37:14.114Z,1008.74
2018-07-27T01:37:49.760Z,1008.70
2018-07-27T01:38:25.251Z,1008.73
2018-07-27T01:39:00.481Z,1008.74
2018-07-27T01:39:35.792Z,1008.73
2018-07-27T01:40:11.108Z,1008.75
2018-07-27T01:40:47.548Z,1008.74
2018-07-27T01:41:22.751Z,1008.72
2018-07-27T01:41:58.299Z,1008.72
2018-07-27T01:42:33.612Z,1008.74
2018-07-27T01:43:09.565Z,1008.73
2018-07-27T01:43:44.784Z,1008.75
2018-07-27T01:44:19.998Z,1008.78
2018-07-27T01:44:55.523Z,1008.77
2018-07-27T01:45:30.862Z,1008.76
2018-07-27T01:46:06.161Z,1008.74
2018-07-27T01:46:43.578Z,1008.75
2018-07-27T01:47:19.207Z,1008.78
2018-07-27T01:47:54.539Z,1008.74
2018-07-27T01:48:30.082Z,1008.78
2018-07-27T01:49:05.330Z,1008.76
2018-07-27T01:49:40.876Z,1008.74
2018-07-27T01:50:16.385Z,1008.77
2018-07-27T01:50:51.612Z,1008.78
2018-07-27T01:51:26.835Z,1008.78
2018-07-27T01:52:02.391Z,1008.80
2018-07-27T01:52:38.030Z,1008.77
2018-07-27T01:53:13.427Z,1008.81
2018-07-27T01:53:48.828Z,1008.80
2018-07-27T01:54:24.637Z,1008.83
2018-07-27T01:54:59.979Z,1008.77
2018-07-27T01:55:35.092Z,1008.82
2018-07-27T01:56:10.407Z,1008.77
2018-07-27T01:56:46.733Z,1008.79
2018-07-27T01:57:22.145Z,1008.77
2018-07-27T01:57:57.411Z,1008.79
2018-07-27T01:58:33.094Z,1008.76
2018-07-27T01:59:08.403Z,1008.79
2018-07-27T01:59:44.058Z,1008.81
2018-07-27T02:00:19.441Z,1008.76
2018-07-27T02:00:54.668Z,1008.79
2018-07-27T02:01:29.651Z,1008.78
2018-07-27T02:02:05.203Z,1008.77
2018-07-27T02:02:42.249Z,1008.75
2018-07-27T02:03:17.455Z,1008.78
2018-07-27T02:03:52.925Z,1008.78
2018-07-27T02:04:28.154Z,1008.76
2018-07-27T02:05:03.173Z,1008.77
2018-07-27T02:05:38.303Z,1008.76
2018-07-27T02:06:13.528Z,1008.74
2018-07-27T02:06:48.837Z,1008.78
2018-07-27T02:07:24.286Z,1008.76
2018-07-27T02:07:59.637Z,1008.77
2018-07-27T02:08:34.977Z,1008.75
2018-07-27T02:09:10.189Z,1008.77
2018-07-27T02:09:45.687Z,1008.79
2018-07-27T02:10:21.221Z,1008.78
2018-07-27T02:10:56.849Z,1008.71
2018-07-27T02:11:32.677Z,1008.74
2018-07-27T02:12:07.742Z,1008.77
2018-07-27T02:12:43.049Z,1008.73
2018-07-27T02:13:18.393Z,1008.72
2018-07-27T02:13:53.638Z,1008.74
2018-07-27T02:14:28.932Z,1008.70
2018-07-27T02:15:07.077Z,1008.73
2018-07-27T02:15:43.612Z,1008.75
2018-07-27T02:16:19.425Z,1008.70
2018-07-27T02:16:54.957Z,1008.68
2018-07-27T02:17:30.194Z,1008.65
2018-07-27T02:18:05.736Z,1008.67
2018-07-27T02:18:41.034Z,1008.67
2018-07-27T02:19:16.302Z,1008.66
2018-07-27T02:19:51.517Z,1008.63
2018-07-27T02:20:26.952Z,1008.62
2018-07-27T02:21:02.676Z,1008.64
2018-07-27T02:21:37.840Z,1008.62
2018-07-27T02:22:13.229Z,1008.61
2018-07-27T02:22:51.150Z,1008.63
2018-07-27T02:23:26.744Z,1008.61
2018-07-27T02:24:02.177Z,1008.57
2018-07-27T02:24:37.561Z,1008.55
2018-07-27T02:25:12.984Z,1008.59
2018-07-27T02:25:48.191Z,1008.60
2018-07-27T02:26:23.537Z,1008.59
2018-07-27T02:26:58.795Z,1008.56
2018-07-27T02:27:34.235Z,1008.55
2018-07-27T02:28:09.589Z,1008.58
2018-07-27T02:28:44.974Z,1008.56
2018-07-27T02:29:19.991Z,1008.54
2018-07-27T02:29:55.502Z,1008.56
2018-07-27T02:30:31.011Z,1008.53
2018-07-27T02:31:06.350Z,1008.54
2018-07-27T02:31:41.670Z,1008.56
2018-07-27T02:32:17.033Z,1008.52
2018-07-27T02:32:52.444Z,1008.49
2018-07-27T02:33:27.976Z,1008.47
2018-07-27T02:34:03.389Z,1008.46
2018-07-27T02:34:38.902Z,1008.46
2018-07-27T02:35:14.047Z,1008.44
2018-07-27T02:35:49.433Z,1008.45
2018-07-27T02:36:24.762Z,1008.44
2018-07-27T02:37:00.112Z,1008.46
2018-07-27T02:37:35.476Z,1008.44
2018-07-27T02:38:11.228Z,1008.46
2018-07-27T02:38:46.927Z,1008.47
2018-07-27T02:39:22.244Z,1008.45
2018-07-27T02:39:57.952Z,1008.47
2018-07-27T02:40:33.139Z,1008.47
2018-07-27T02:41:08.254Z,1008.46
2018-07-27T02:41:43.692Z,1008.47
2018-07-27T02:42:19.338Z,1008.43
2018-07-27T02:42:54.564Z,1008.43
2018-07-27T02:43:29.860Z,1008.46
2018-07-27T02:44:05.185Z,1008.45
2018-07-27T02:44:40.611Z,1008.44
2018-07-27T02:45:16.066Z,1008.43
2018-07-27T02:45:51.682Z,1008.46
2018-07-27T02:46:27.014Z,1008.41
2018-07-27T02:47:02.575Z,1008.41
2018-07-27T02:47:37.675Z,1008.43
2018-07-27T02:48:12.884Z,1008.40
2018-07-27T02:48:48.503Z,1008.44
2018-07-27T02:49:23.754Z,1008.41
2018-07-27T02:49:59.282Z,1008.40
2018-07-27T02:50:34.600Z,1008.41
2018-07-27T02:51:10.363Z,1008.42
2018-07-27T02:51:48.479Z,1008.42
2018-07-27T02:52:23.919Z,1008.39
2018-07-27T02:52:59.351Z,1008.39
2018-07-27T02:53:34.464Z,1008.42
2018-07-27T02:54:10.261Z,1008.44
2018-07-27T02:54:45.460Z,1008.43
2018-07-27T02:55:21.015Z,1008.41
2018-07-27T02:55:56.626Z,1008.41
2018-07-27T02:56:32.057Z,1008.40
2018-07-27T02:57:07.404Z,1008.43
2018-07-27T02:57:42.702Z,1008.42
2018-07-27T02:58:18.223Z,1008.42
2018-07-27T02:58:53.557Z,1008.41
2018-07-27T02:59:28.932Z,1008.42
2018-07-27T03:00:04.662Z,1008.40
2018-07-27T03:00:42.980Z,1008.39
2018-07-27T03:01:18.403Z,1008.42
2018-07-27T03:01:53.880Z,1008.40
2018-07-27T03:02:29.506Z,1008.41
2018-07-27T03:03:04.639Z,1008.41
2018-07-27T03:03:40.137Z,1008.40
2018-07-27T03:04:15.454Z,1008.41
2018-07-27T03:04:50.662Z,1008.44
2018-07-27T03:05:26.116Z,1008.41
2018-07-27T03:06:01.199Z,1008.42
2018-07-27T03:06:36.431Z,1008.43
2018-07-27T03:07:11.889Z,1008.43
2018-07-27T03:07:47.092Z,1008.43
2018-07-27T03:08:22.246Z,1008.41
2018-07-27T03:08:57.544Z,1008.43
2018-07-27T03:09:33.081Z,1008.43
2018-07-27T03:10:08.338Z,1008.44
2018-07-27T03:10:45.101Z,1008.41
2018-07-27T03:11:20.633Z,1008.40
2018-07-27T03:11:55.919Z,1008.41
2018-07-27T03:12:31.361Z,1008.41
2018-07-27T03:13:06.704Z,1008.41
2018-07-27T03:13:41.902Z,1008.43
2018-07-27T03:14:17.029Z,1008.41
2018-07-27T03:14:52.246Z,1008.43
2018-07-27T03:15:27.374Z,1008.41
2018-07-27T03:16:02.719Z,1008.40
2018-07-27T03:16:38.655Z,1008.46
2018-07-27T03:17:13.903Z,1008.40
2018-07-27T03:17:49.331Z,1008.40
2018-07-27T03:18:24.542Z,1008.41
2018-07-27T03:18:59.758Z,1008.38
2018-07-27T03:19:35.174Z,1008.40
2018-07-27T03:20:10.519Z,1008.41
2018-07-27T03:20:46.930Z,1008.38
2018-07-27T03:21:22.279Z,1008.38
2018-07-27T03:21:57.625Z,1008.42
2018-07-27T03:22:32.960Z,1008.41
2018-07-27T03:23:07.889Z,1008.39
2018-07-27T03:23:43.508Z,1008.40
2018-07-27T03:24:18.959Z,1008.41
2018-07-27T03:24:54.192Z,1008.40
2018-07-27T03:25:29.807Z,1008.38
2018-07-27T03:26:05.019Z,1008.37
2018-07-27T03:26:40.513Z,1008.38
2018-07-27T03:27:15.870Z,1008.38
2018-07-27T03:27:51.074Z,1008.39
2018-07-27T03:28:26.399Z,1008.37
2018-07-27T03:29:01.994Z,1008.36
2018-07-27T03:29:37.233Z,1008.37
2018-07-27T03:30:12.735Z,1008.36
2018-07-27T03:30:48.164Z,1008.40
2018-07-27T03:31:23.907Z,1008.35
2018-07-27T03:31:59.544Z,1008.38
2018-07-27T03:32:34.795Z,1008.38
2018-07-27T03:33:10.334Z,1008.37
2018-07-27T03:33:45.651Z,1008.39
2018-07-27T03:34:20.995Z,1008.44
2018-07-27T03:34:56.286Z,1008.42
2018-07-27T03:35:31.403Z,1008.43
2018-07-27T03:36:06.625Z,1008.41
2018-07-27T03:36:41.959Z,1008.41
2018-07-27T03:37:17.217Z,1008.39
2018-07-27T03:37:52.322Z,1008.41
2018-07-27T03:38:27.467Z,1008.40
2018-07-27T03:39:02.559Z,1008.38
2018-07-27T03:39:37.894Z,1008.39
2018-07-27T03:40:13.212Z,1008.40
2018-07-27T03:40:48.707Z,1008.42
2018-07-27T03:41:24.344Z,1008.43
2018-07-27T03:41:59.876Z,1008.42
2018-07-27T03:42:35.211Z,1008.41
2018-07-27T03:43:10.552Z,1008.41
2018-07-27T03:43:45.811Z,1008.40
2018-07-27T03:44:20.989Z,1008.41
2018-07-27T03:44:56.586Z,1008.43
2018-07-27T03:45:31.898Z,1008.43
2018-07-27T03:46:07.366Z,1008.43
2018-07-27T03:46:42.754Z,1008.40
2018-07-27T03:47:18.210Z,1008.41
2018-07-27T03:47:53.723Z,1008.38
2018-07-27T03:48:28.849Z,1008.42
2018-07-27T03:49:04.281Z,1008.36
2018-07-27T03:49:39.498Z,1008.39
2018-07-27T03:50:14.808Z,1008.39
2018-07-27T03:50:51.009Z,1008.38
2018-07-27T03:51:26.219Z,1008.39
2018-07-27T03:52:01.454Z,1008.36
2018-07-27T03:52:36.867Z,1008.41
2018-07-27T03:53:12.195Z,1008.39
2018-07-27T03:53:47.295Z,1008.40
2018-07-27T03:54:22.440Z,1008.42
2018-07-27T03:54:57.665Z,1008.43
2018-07-27T03:55:33.005Z,1008.42
2018-07-27T03:56:08.374Z,1008.37
2018-07-27T03:56:43.817Z,1008.38
2018-07-27T03:57:19.381Z,1008.39
2018-07-27T03:57:55.419Z,1008.43
2018-07-27T03:58:30.573Z,1008.40
2018-07-27T03:59:06.308Z,1008.39
2018-07-27T03:59:41.701Z,1008.39
2018-07-27T04:00:17.148Z,1008.37
2018-07-27T04:00:52.579Z,1008.39
2018-07-27T04:01:27.899Z,1008.40
2018-07-27T04:02:03.031Z,1008.43
2018-07-27T04:02:38.590Z,1008.40
2018-07-27T04:03:13.938Z,1008.42
2018-07-27T04:03:49.239Z,1008.40
2018-07-27T04:04:24.671Z,1008.40
2018-07-27T04:04:59.956Z,1008.37
2018-07-27T04:05:35.329Z,1008.39
2018-07-27T04:06:10.859Z,1008.41
2018-07-27T04:06:46.212Z,1008.41
2018-07-27T04:07:21.608Z,1008.42
2018-07-27T04:07:56.991Z,1008.41
2018-07-27T04:08:32.314Z,1008.45
2018-07-27T04:09:07.389Z,1008.43
2018-07-27T04:09:42.526Z,1008.41
2018-07-27T04:10:17.636Z,1008.44
2018-07-27T04:10:52.848Z,1008.42
2018-07-27T04:11:28.367Z,1008.39
2018-07-27T04:12:03.595Z,1008.41
2018-07-27T04:12:39.239Z,1008.39
2018-07-27T04:13:14.498Z,1008.37
2018-07-27T04:13:49.800Z,1008.39
2018-07-27T04:14:25.042Z,1008.38
2018-07-27T04:15:00.098Z,1008.36
2018-07-27T04:15:35.327Z,1008.37
2018-07-27T04:16:10.732Z,1008.40
2018-07-27T04:16:46.347Z,1008.36
2018-07-27T04:17:21.709Z,1008.39
2018-07-27T04:17:56.897Z,1008.40
2018-07-27T04:18:32.739Z,1008.38
2018-07-27T04:19:08.363Z,1008.41
2018-07-27T04:19:43.881Z,1008.42
2018-07-27T04:20:19.512Z,1008.41
2018-07-27T04:20:54.829Z,1008.36
2018-07-27T04:21:30.120Z,1008.33
2018-07-27T04:22:05.353Z,1008.39
2018-07-27T04:22:40.811Z,1008.36
2018-07-27T04:23:15.941Z,1008.39
2018-07-27T04:23:51.440Z,1008.41
2018-07-27T04:24:26.792Z,1008.43
2018-07-27T04:25:02.289Z,1008.41
2018-07-27T04:25:37.699Z,1008.42
2018-07-27T04:26:12.936Z,1008.43
2018-07-27T04:26:48.464Z,1008.45
2018-07-27T04:27:23.939Z,1008.43
2018-07-27T04:27:59.353Z,1008.42
2018-07-27T04:28:34.701Z,1008.46
2018-07-27T04:29:09.932Z,1008.46
2018-07-27T04:29:45.244Z,1008.46
2018-07-27T04:30:20.495Z,1008.42
2018-07-27T04:30:56.195Z,1008.42
2018-07-27T04:31:31.521Z,1008.44
2018-07-27T04:32:06.934Z,1008.46
2018-07-27T04:32:43.376Z,1008.41
2018-07-27T04:33:18.894Z,1008.44
2018-07-27T04:33:53.898Z,1008.44
2018-07-27T04:34:29.231Z,1008.43
2018-07-27T04:35:04.568Z,1008.42
2018-07-27T04:35:39.912Z,1008.45
2018-07-27T04:36:15.243Z,1008.46
2018-07-27T04:36:50.558Z,1008.45
2018-07-27T04:37:26.112Z,1008.45
2018-07-27T04:38:01.303Z,1008.49
2018-07-27T04:38:36.763Z,1008.45
2018-07-27T04:39:12.175Z,1008.47
2018-07-27T04:39:47.434Z,1008.49
2018-07-27T04:40:23.022Z,1008.48
2018-07-27T04:40:58.432Z,1008.46
2018-07-27T04:41:33.856Z,1008.50
2018-07-27T04:42:09.100Z,1008.47
2018-07-27T04:42:44.367Z,1008.47
2018-07-27T04:43:19.611Z,1008.48
2018-07-27T04:43:54.807Z,1008.47
2018-07-27T04:44:30.242Z,1008.47
2018-07-27T04:45:05.343Z,1008.49
2018-07-27T04:45:40.474Z,1008.49
2018-07-27T04:46:15.741Z,1008.47
2018-07-27T04:46:51.144Z,1008.49
2018-07-27T04:47:26.613Z,1008.49
2018-07-27T04:48:01.912Z,1008.47
2018-07-27T04:48:37.536Z,1008.49
2018-07-27T04:49:12.865Z,1008.48
2018-07-27T04:49:48.193Z,1008.48
2018-07-27T04:50:23.616Z,1008.48
2018-07-27T04:50:58.717Z,1008.48
2018-07-27T04:51:33.834Z,1008.48
2018-07-27T04:52:09.249Z,1008.48
2018-07-27T04:52:44.495Z,1008.48
2018-07-27T04:53:20.128Z,1008.46
2018-07-27T04:53:55.531Z,1008.48
2018-07-27T04:54:30.691Z,1008.48
2018-07-27T04:55:06.109Z,1008.51
2018-07-27T04:55:41.244Z,1008.49
2018-07-27T04:56:16.620Z,1008.50
2018-07-27T04:56:51.918Z,1008.50
2018-07-27T04:57:27.644Z,1008.49
2018-07-27T04:58:03.264Z,1008.51
2018-07-27T04:58:39.015Z,1008.50
2018-07-27T04:59:14.427Z,1008.46
2018-07-27T04:59:50.583Z,1008.52
2018-07-27T05:00:26.019Z,1008.51
2018-07-27T05:01:01.721Z,1008.50
2018-07-27T05:01:37.110Z,1008.50
2018-07-27T05:02:12.415Z,1008.51
2018-07-27T05:02:48.060Z,1008.51
2018-07-27T05:03:23.293Z,1008.53
2018-07-27T05:03:58.711Z,1008.51
2018-07-27T05:04:33.836Z,1008.54
2018-07-27T05:05:09.237Z,1008.50
2018-07-27T05:05:44.562Z,1008.52
2018-07-27T05:06:20.055Z,1008.55
2018-07-27T05:06:55.538Z,1008.55
2018-07-27T05:07:30.985Z,1008.54
2018-07-27T05:08:06.166Z,1008.54
2018-07-27T05:08:41.470Z,1008.56
2018-07-27T05:09:16.687Z,1008.55
2018-07-27T05:09:52.011Z,1008.57
2018-07-27T05:10:27.367Z,1008.59
2018-07-27T05:11:02.567Z,1008.55
2018-07-27T05:11:38.307Z,1008.60
2018-07-27T05:12:13.944Z,1008.58
2018-07-27T05:12:49.366Z,1008.56
2018-07-27T05:13:24.499Z,1008.56
2018-07-27T05:14:00.030Z,1008.56
2018-07-27T05:14:35.343Z,1008.55
2018-07-27T05:15:10.640Z,1008.54
2018-07-27T05:15:46.985Z,1008.56
2018-07-27T05:16:22.287Z,1008.59
2018-07-27T05:16:57.639Z,1008.56
2018-07-27T05:17:33.205Z,1008.58
2018-07-27T05:18:08.735Z,1008.57
2018-07-27T05:18:44.241Z,1008.58
2018-07-27T05:19:19.647Z,1008.58
2018-07-27T05:19:55.116Z,1008.55
2018-07-27T05:20:30.724Z,1008.58
2018-07-27T05:21:06.334Z,1008.62
2018-07-27T05:21:41.681Z,1008.61
2018-07-27T05:22:16.912Z,1008.56
2018-07-27T05:22:52.580Z,1008.60
2018-07-27T05:23:27.734Z,1008.61
2018-07-27T05:24:03.440Z,1008.60
2018-07-27T05:24:38.840Z,1008.58
2018-07-27T05:25:14.186Z,1008.58
2018-07-27T05:25:49.309Z,1008.62
2018-07-27T05:26:24.747Z,1008.62
2018-07-27T05:26:59.964Z,1008.59
2018-07-27T05:27:35.589Z,1008.60
2018-07-27T05:28:10.885Z,1008.59
2018-07-27T05:28:47.414Z,1008.57
2018-07-27T05:29:22.805Z,1008.57
2018-07-27T05:29:57.974Z,1008.56
2018-07-27T05:30:33.302Z,1008.55
2018-07-27T05:31:08.606Z,1008.54
2018-07-27T05:31:43.732Z,1008.51
2018-07-27T05:32:19.076Z,1008.57
2018-07-27T05:32:54.694Z,1008.54
2018-07-27T05:33:30.343Z,1008.60
2018-07-27T05:34:05.647Z,1008.51
2018-07-27T05:34:40.824Z,1008.52
2018-07-27T05:35:16.025Z,1008.55
2018-07-27T05:35:51.385Z,1008.55
2018-07-27T05:36:26.837Z,1008.54
2018-07-27T05:37:02.075Z,1008.59
2018-07-27T05:37:37.320Z,1008.56
2018-07-27T05:38:12.520Z,1008.56
2018-07-27T05:38:48.262Z,1008.58
2018-07-27T05:39:23.488Z,1008.60
2018-07-27T05:39:58.998Z,1008.58
2018-07-27T05:40:34.368Z,1008.61
2018-07-27T05:41:09.569Z,1008.60
2018-07-27T05:41:45.006Z,1008.59
2018-07-27T05:42:20.377Z,1008.64
2018-07-27T05:42:57.192Z,1008.65
2018-07-27T05:43:32.834Z,1008.63
2018-07-27T05:44:08.048Z,1008.59
2018-07-27T05:44:43.268Z,1008.62
2018-07-27T05:45:18.591Z,1008.61
2018-07-27T05:45:53.905Z,1008.62
2018-07-27T05:46:29.346Z,1008.64
2018-07-27T05:47:04.934Z,1008.59
2018-07-27T05:47:40.405Z,1008.65
2018-07-27T05:48:16.019Z,1008.67
2018-07-27T05:48:51.261Z,1008.65
2018-07-27T05:49:26.392Z,1008.63
2018-07-27T05:50:01.603Z,1008.67
2018-07-27T05:50:36.859Z,1008.64
2018-07-27T05:51:12.184Z,1008.67
2018-07-27T05:51:47.655Z,1008.67
2018-07-27T05:52:22.793Z,1008.72
2018-07-27T05:52:57.927Z,1008.65
2018-07-27T05:53:33.419Z,1008.66
2018-07-27T05:54:08.736Z,1008.64
2018-07-27T05:54:44.453Z,1008.66
2018-07-27T05:55:19.749Z,1008.67
2018-07-27T05:55:55.096Z,1008.63
2018-07-27T05:56:30.529Z,1008.64
2018-07-27T05:57:05.903Z,1008.64
2018-07-27T05:57:41.422Z,1008.65
2018-07-27T05:58:16.964Z,1008.68
2018-07-27T05:58:52.313Z,1008.65
2018-07-27T05:59:28.063Z,1008.72
2018-07-27T06:00:03.442Z,1008.68
2018-07-27T06:00:41.065Z,1008.71
2018-07-27T06:01:16.324Z,1008.70
2018-07-27T06:01:51.717Z,1008.66
2018-07-27T06:02:27.259Z,1008.71
2018-07-27T06:03:02.833Z,1008.68
2018-07-27T06:03:38.418Z,1008.70
2018-07-27T06:04:13.675Z,1008.72
2018-07-27T06:04:49.036Z,1008.69
2018-07-27T06:05:24.406Z,1008.71
2018-07-27T06:05:59.935Z,1008.68
2018-07-27T06:06:35.153Z,1008.68
2018-07-27T06:07:10.732Z,1008.71
2018-07-27T06:07:46.251Z,1008.68
2018-07-27T06:08:21.428Z,1008.67
2018-07-27T06:08:57.139Z,1008.67
2018-07-27T06:09:32.245Z,1008.67
2018-07-27T06:10:07.504Z,1008.66
2018-07-27T06:10:43.244Z,1008.68
2018-07-27T06:11:18.715Z,1008.71
2018-07-27T06:11:54.137Z,1008.73
2018-07-27T06:12:29.363Z,1008.71
2018-07-27T06:13:04.796Z,1008.67
2018-07-27T06:13:40.096Z,1008.68
2018-07-27T06:14:15.340Z,1008.67
2018-07-27T06:14:51.069Z,1008.71
2018-07-27T06:15:26.491Z,1008.71
2018-07-27T06:16:01.931Z,1008.77
2018-07-27T06:16:37.468Z,1008.74
2018-07-27T06:17:12.729Z,1008.74
2018-07-27T06:17:48.274Z,1008.76
2018-07-27T06:18:23.651Z,1008.72
2018-07-27T06:18:58.915Z,1008.71
2018-07-27T06:19:34.627Z,1008.70
2018-07-27T06:20:10.067Z,1008.72
2018-07-27T06:20:45.316Z,1008.73
2018-07-27T06:21:20.523Z,1008.69
2018-07-27T06:21:55.793Z,1008.74
2018-07-27T06:22:31.406Z,1008.70
2018-07-27T06:23:06.840Z,1008.75
2018-07-27T06:23:42.675Z,1008.77
2018-07-27T06:24:18.134Z,1008.70
2018-07-27T06:24:53.362Z,1008.72
2018-07-27T06:25:29.002Z,1008.75
2018-07-27T06:26:04.436Z,1008.72
2018-07-27T06:26:42.532Z,1008.73
2018-07-27T06:27:17.577Z,1008.73
2018-07-27T06:27:52.921Z,1008.73
2018-07-27T06:28:28.812Z,1008.73
2018-07-27T06:29:04.464Z,1008.75
2018-07-27T06:29:39.865Z,1008.74
2018-07-27T06:30:15.128Z,1008.72
2018-07-27T06:30:50.523Z,1008.73
2018-07-27T06:31:25.941Z,1008.76
2018-07-27T06:32:01.113Z,1008.74
2018-07-27T06:32:36.418Z,1008.71
2018-07-27T06:33:11.675Z,1008.73
2018-07-27T06:33:47.317Z,1008.73
2018-07-27T06:34:23.346Z,1008.70
2018-07-27T06:35:00.059Z,1008.74
2018-07-27T06:35:35.621Z,1008.72
2018-07-27T06:36:10.864Z,1008.71
2018-07-27T06:36:46.202Z,1008.69
2018-07-27T06:37:21.680Z,1008.74
2018-07-27T06:37:57.008Z,1008.69
2018-07-27T06:38:32.247Z,1008.74
2018-07-27T06:39:08.840Z,1008.71
2018-07-27T06:39:45.140Z,1008.66
2018-07-27T06:40:20.573Z,1008.69
2018-07-27T06:40:55.956Z,1008.68
2018-07-27T06:41:31.307Z,1008.73
2018-07-27T06:42:06.675Z,1008.69
2018-07-27T06:42:41.976Z,1008.71
2018-07-27T06:43:17.518Z,1008.70
2018-07-27T06:43:52.600Z,1008.70
2018-07-27T06:44:27.938Z,1008.72
2018-07-27T06:45:03.075Z,1008.72
2018-07-27T06:45:38.509Z,1008.75
2018-07-27T06:46:13.958Z,1008.74
2018-07-27T06:46:49.263Z,1008.75
2018-07-27T06:47:24.603Z,1008.76
2018-07-27T06:48:00.275Z,1008.72
2018-07-27T06:48:35.498Z,1008.70
2018-07-27T06:49:11.335Z,1008.74
2018-07-27T06:49:47.185Z,1008.71
2018-07-27T06:50:23.127Z,1008.72
2018-07-27T06:50:58.549Z,1008.80
2018-07-27T06:51:34.175Z,1008.72
2018-07-27T06:52:09.645Z,1008.75
2018-07-27T06:52:44.744Z,1008.73
2018-07-27T06:53:20.580Z,1008.73
2018-07-27T06:53:55.922Z,1008.76
2018-07-27T06:54:31.025Z,1008.74
2018-07-27T06:55:06.243Z,1008.73
2018-07-27T06:55:41.593Z,1008.71
2018-07-27T06:56:17.030Z,1008.73
2018-07-27T06:56:52.546Z,1008.76
2018-07-27T06:57:27.993Z,1008.78
2018-07-27T06:58:03.639Z,1008.75
2018-07-27T06:58:38.934Z,1008.76
2018-07-27T06:59:14.289Z,1008.74
2018-07-27T06:59:49.847Z,1008.74
2018-07-27T07:00:25.120Z,1008.75
2018-07-27T07:01:03.207Z,1008.72
2018-07-27T07:01:38.529Z,1008.76
2018-07-27T07:02:14.218Z,1008.71
2018-07-27T07:02:49.423Z,1008.72
2018-07-27T07:03:24.982Z,1008.73
2018-07-27T07:04:00.587Z,1008.76
2018-07-27T07:04:36.224Z,1008.75
2018-07-27T07:05:11.568Z,1008.75
2018-07-27T07:05:46.788Z,1008.74
2018-07-27T07:06:22.038Z,1008.73
2018-07-27T07:06:57.706Z,1008.72
2018-07-27T07:07:33.527Z,1008.77
2018-07-27T07:08:09.096Z,1008.71
2018-07-27T07:08:44.192Z,1008.76